Time;durP1;ratioP1;P1;durP2;ratioP2;P2;SDS_P1;SDS_P2;PMS_P1;PMS_P2;Temp;Humidity;BMP_temperature;BMP_pressure;BME280_temperature;BME280_humidity;BME280_pressure;Samples;Min_cycle;Max_cycle;Signal;HPM_P1;HPM_P2
2021/12/12 00:01:31;;;;;;;39.60;21.33;;;;;;;3.27;95.38;100142.97;5062136;28;20120;-66
2021/12/12 00:04:09;;;;;;;41.58;22.08;;;;;;;3.23;95.45;100144.97;5070730;28;20478;-65
2021/12/12 00:06:38;;;;;;;40.90;21.90;;;;;;;3.24;95.42;100141.38;5063249;28;20036;-65
2021/12/12 00:09:16;;;;;;;37.35;21.13;;;;;;;3.22;95.39;100142.44;5055845;28;20484;-64
2021/12/12 00:11:42;;;;;;;35.58;20.35;;;;;;;3.22;95.58;100140.59;5051919;28;20078;-64
2021/12/12 00:14:20;;;;;;;38.65;20.73;;;;;;;3.18;95.61;100130.28;5060496;28;20033;-65
2021/12/12 00:16:47;;;;;;;38.85;20.10;;;;;;;3.20;95.40;100144.31;5067811;28;20111;-65
2021/12/12 00:19:13;;;;;;;37.17;20.98;;;;;;;3.20;95.61;100154.91;5060643;28;20024;-65
2021/12/12 00:21:41;;;;;;;38.45;20.02;;;;;;;3.20;95.40;100160.19;5065548;28;20089;-65
2021/12/12 00:24:10;;;;;;;36.55;19.75;;;;;;;3.16;95.36;100148.91;5056137;28;20049;-65
2021/12/12 00:26:36;;;;;;;37.58;20.63;;;;;;;3.17;94.98;100155.94;5069902;28;20078;-65
2021/12/12 00:29:03;;;;;;;35.22;19.27;;;;;;;3.22;95.04;100163.63;5059975;28;20033;-64
2021/12/12 00:31:29;;;;;;;33.03;18.35;;;;;;;3.19;95.11;100169.94;5056600;28;20037;-64
2021/12/12 00:33:56;;;;;;;35.08;19.33;;;;;;;3.19;95.00;100169.09;5056133;28;20053;-65
2021/12/12 00:36:25;;;;;;;33.95;19.30;;;;;;;3.21;94.34;100178.66;5064939;28;20108;-65
2021/12/12 00:38:56;;;;;;;36.80;19.42;;;;;;;3.21;94.36;100180.44;5062759;28;20032;-66
2021/12/12 00:41:31;;;;;;;34.85;18.85;;;;;;;3.17;94.22;100173.63;5060120;28;20025;-66
2021/12/12 00:43:59;;;;;;;34.67;18.67;;;;;;;3.18;94.66;100185.94;5061196;28;20021;-66
2021/12/12 00:46:25;;;;;;;33.00;18.88;;;;;;;3.12;94.46;100181.84;5071074;28;20028;-65
2021/12/12 00:48:52;;;;;;;36.13;18.98;;;;;;;3.19;94.69;100192.94;5057977;28;20025;-66
2021/12/12 00:51:22;;;;;;;32.67;18.88;;;;;;;3.18;94.33;100194.75;5063306;28;20032;-66
2021/12/12 00:53:48;;;;;;;36.53;18.88;;;;;;;3.16;94.54;100196.63;5063857;28;20025;-65
2021/12/12 00:56:13;;;;;;;35.40;18.63;;;;;;;3.16;94.40;100201.91;5063732;28;20158;-65
2021/12/12 00:58:39;;;;;;;30.92;17.40;;;;;;;3.16;94.13;100195.78;5069115;28;20017;-65
2021/12/12 01:01:09;;;;;;;32.42;18.45;;;;;;;3.15;94.47;100208.16;5068922;28;20028;-65
2021/12/12 01:03:43;;;;;;;36.40;19.98;;;;;;;3.20;94.19;100215.84;5052476;28;20025;-65
2021/12/12 01:06:12;;;;;;;31.42;17.33;;;;;;;3.16;94.00;100219.63;5053176;28;20387;-65
2021/12/12 01:08:40;;;;;;;34.33;18.73;;;;;;;3.11;93.88;100208.44;5054554;28;20029;-65
2021/12/12 01:11:16;;;;;;;32.50;18.55;;;;;;;3.15;93.65;100217.91;5065390;28;20044;-65
2021/12/12 01:13:43;;;;;;;31.08;16.50;;;;;;;3.17;94.00;100213.38;5065403;28;20039;-65
2021/12/12 01:16:33;;;;;;;33.45;18.30;;;;;;;3.14;94.19;100209.13;5070269;28;20035;-66
2021/12/12 01:19:12;;;;;;;32.30;17.10;;;;;;;3.13;93.74;100195.97;5067048;28;20445;-65
2021/12/12 01:21:44;;;;;;;29.23;16.98;;;;;;;3.11;93.78;100192.53;5063958;28;20029;-65
2021/12/12 01:24:30;;;;;;;32.90;18.33;;;;;;;3.10;93.91;100197.00;5050174;28;20048;-65
2021/12/12 01:26:58;;;;;;;30.95;17.23;;;;;;;3.11;93.99;100203.13;5050658;28;20172;-65
2021/12/12 01:29:24;;;;;;;31.10;17.27;;;;;;;3.10;93.72;100191.72;5063864;28;20024;-66
2021/12/12 01:31:50;;;;;;;33.17;18.10;;;;;;;3.16;93.25;100193.13;5070477;28;20047;-66
2021/12/12 01:34:24;;;;;;;30.17;17.05;;;;;;;3.14;93.04;100193.22;5052993;28;20076;-66
2021/12/12 01:37:05;;;;;;;38.17;18.27;;;;;;;3.14;93.59;100192.34;5054133;28;20043;-66
2021/12/12 01:39:35;;;;;;;31.63;17.27;;;;;;;3.12;93.24;100188.94;5050421;28;20386;-66
2021/12/12 01:42:19;;;;;;;31.77;17.50;;;;;;;3.11;93.50;100187.25;5062472;28;20029;-66
2021/12/12 01:44:46;;;;;;;;;;;;;;;3.08;93.58;100185.63;5057785;28;20017;-66
2021/12/12 01:47:22;;;;;;;29.50;16.08;;;;;;;3.17;93.01;100192.19;5061347;28;19920;-66
2021/12/12 01:49:55;;;;;;;30.73;16.55;;;;;;;3.18;92.35;100197.38;5050314;28;20035;-66
2021/12/12 01:52:24;;;;;;;28.88;16.35;;;;;;;3.16;92.47;100188.66;5067243;28;20522;-66
2021/12/12 01:54:54;;;;;;;32.90;17.77;;;;;;;3.14;92.47;100197.66;5050477;28;20036;-66
2021/12/12 01:57:32;;;;;;;31.60;16.17;;;;;;;3.10;92.35;100194.34;5063246;28;20475;-66
2021/12/12 02:00:05;;;;;;;31.20;17.38;;;;;;;3.11;92.54;100196.06;5049490;28;20047;-65
2021/12/12 02:02:33;;;;;;;30.90;17.40;;;;;;;3.11;92.12;100195.19;5050578;28;20020;-64
2021/12/12 02:05:04;;;;;;;33.17;17.35;;;;;;;3.07;92.24;100201.63;5069252;28;20376;-65
2021/12/12 02:07:33;;;;;;;27.38;15.50;;;;;;;3.10;92.78;100197.00;5052686;28;20395;-64
2021/12/12 02:10:03;;;;;;;28.92;17.33;;;;;;;3.08;92.16;100179.47;5049437;28;20112;-65
2021/12/12 02:12:29;;;;;;;30.27;17.08;;;;;;;3.13;91.48;100188.84;5057414;28;20111;-66
2021/12/12 02:14:57;;;;;;;30.55;17.33;;;;;;;3.07;91.65;100198.97;5064190;28;20111;-65
2021/12/12 02:17:34;;;;;;;30.13;16.75;;;;;;;3.09;92.28;100200.56;5068996;28;20021;-65
2021/12/12 02:20:33;;;;;;;29.67;16.67;;;;;;;3.10;90.68;100201.44;5068864;28;20525;-65
2021/12/12 02:36:20;;;;;;;27.35;15.60;;;;;;;2.96;91.83;100219.94;5063713;28;20047;-64
2021/12/12 02:38:50;;;;;;;32.22;16.77;;;;;;;2.97;91.73;100222.47;5065064;28;20120;-64
2021/12/12 02:41:17;;;;;;;30.42;16.83;;;;;;;2.89;91.18;100213.28;5068174;28;20154;-64
2021/12/12 02:44:04;;;;;;;34.00;16.60;;;;;;;2.98;91.22;100233.94;5061911;28;20032;-64
2021/12/12 02:46:34;;;;;;;30.20;16.08;;;;;;;3.02;90.77;100236.31;5051559;28;20056;-65
2021/12/12 02:49:08;;;;;;;30.05;16.42;;;;;;;3.04;90.43;100237.09;5062347;28;20032;-65
2021/12/12 02:51:37;;;;;;;31.27;17.58;;;;;;;2.98;90.54;100239.22;5055488;28;20040;-65
2021/12/12 02:54:04;;;;;;;31.52;17.30;;;;;;;2.98;90.66;100239.22;5051041;28;20494;-64
2021/12/12 02:56:39;;;;;;;32.35;17.65;;;;;;;2.95;90.72;100236.75;5053831;28;20468;-66
2021/12/12 02:59:10;;;;;;;33.88;17.23;;;;;;;3.10;89.42;100239.41;5050564;28;20392;-65
2021/12/12 03:01:41;;;;;;;29.35;17.38;;;;;;;3.03;89.63;100261.03;5049838;28;20028;-65
2021/12/12 03:04:08;;;;;;;31.23;16.95;;;;;;;2.99;89.84;100243.56;5053668;28;20484;-66
2021/12/12 03:06:37;;;;;;;30.10;16.83;;;;;;;3.00;90.16;100245.31;5051709;28;20028;-66
2021/12/12 03:09:11;;;;;;;31.92;18.38;;;;;;;2.96;89.54;100228.72;5051967;28;20032;-66
2021/12/12 03:11:36;;;;;;;32.95;17.40;;;;;;;2.95;89.39;100223.50;5052830;28;20041;-66
2021/12/12 03:14:05;;;;;;;29.88;16.58;;;;;;;2.98;89.18;100231.28;5053316;28;20303;-65
2021/12/12 03:16:31;;;;;;;33.15;17.33;;;;;;;2.90;89.66;100230.91;5053132;28;20114;-66
2021/12/12 03:18:57;;;;;;;33.13;18.48;;;;;;;2.90;89.64;100222.94;5051634;28;20029;-66
2021/12/12 03:21:32;;;;;;;31.92;16.55;;;;;;;2.94;89.95;100233.28;5052206;28;20035;-66
2021/12/12 03:24:09;;;;;;;30.77;17.02;;;;;;;2.96;89.37;100222.59;5051672;28;20037;-66
2021/12/12 03:26:36;;;;;;;26.95;15.68;;;;;;;2.99;88.80;100225.91;5049684;28;20143;-66
2021/12/12 03:29:05;;;;;;;32.65;18.00;;;;;;;2.94;88.88;100233.28;5048914;28;20391;-66
2021/12/12 03:31:40;;;;;;;29.95;16.95;;;;;;;2.93;89.18;100241.31;5051760;28;20025;-66
2021/12/12 03:34:14;;;;;;;32.75;17.67;;;;;;;2.94;88.65;100241.22;5052783;28;20029;-66
2021/12/12 03:36:40;;;;;;;27.13;16.88;;;;;;;2.90;88.94;100228.25;5051092;28;20025;-64
2021/12/12 03:39:11;;;;;;;32.63;18.48;;;;;;;2.94;88.74;100241.22;5050158;28;20040;-64
2021/12/12 03:41:38;;;;;;;32.95;17.30;;;;;;;2.92;89.10;100247.53;5050951;28;20047;-64
2021/12/12 03:44:11;;;;;;;31.92;17.02;;;;;;;2.92;88.80;100236.94;5051661;28;20044;-64
2021/12/12 03:46:37;;;;;;;33.53;18.33;;;;;;;2.91;88.56;100230.81;5053714;28;20021;-65
2021/12/12 03:49:04;;;;;;;35.03;18.90;;;;;;;2.86;88.55;100213.44;5054839;28;20029;-65
2021/12/12 03:51:31;;;;;;;31.00;17.55;;;;;;;2.96;88.85;100238.50;5051622;28;20103;-64
2021/12/12 03:53:57;;;;;;;30.83;16.50;;;;;;;2.93;88.88;100231.56;5055868;28;20102;-65
2021/12/12 03:56:24;;;;;;;31.67;17.15;;;;;;;2.88;88.13;100211.59;5050866;28;20087;-65
2021/12/12 03:58:49;;;;;;;31.58;18.13;;;;;;;2.92;88.27;100227.22;5051831;28;20037;-66
2021/12/12 04:01:35;;;;;;;33.13;18.48;;;;;;;2.92;88.35;100221.03;5051366;28;20491;-65
2021/12/12 04:04:24;;;;;;;35.47;17.58;;;;;;;2.92;88.51;100224.56;5052042;28;20025;-65
2021/12/12 04:06:51;;;;;;;32.00;17.70;;;;;;;2.90;88.06;100215.84;5050354;28;20052;-65
2021/12/12 04:09:18;;;;;;;33.88;18.67;;;;;;;2.91;88.41;100235.25;5050673;28;20029;-65
2021/12/12 04:11:48;;;;;;;31.52;17.92;;;;;;;2.89;88.66;100248.56;5051913;28;20545;-65
2021/12/12 04:14:14;;;;;;;35.03;18.60;;;;;;;2.90;88.35;100241.50;5056561;28;20125;-66
2021/12/12 04:16:43;;;;;;;33.03;19.23;;;;;;;2.82;88.37;100235.75;5066484;28;20025;-65
2021/12/12 04:19:09;;;;;;;32.22;17.58;;;;;;;2.98;87.64;100248.03;5071596;28;20028;-66
2021/12/12 04:21:36;;;;;;;33.17;17.67;;;;;;;2.90;88.20;100236.19;5052922;28;20104;-66
2021/12/12 04:24:02;;;;;;;34.22;18.58;;;;;;;2.78;88.37;100219.22;5050069;28;20048;-65
2021/12/12 04:26:33;;;;;;;37.33;19.10;;;;;;;2.89;88.50;100234.47;5053073;28;20032;-65
2021/12/12 04:29:10;;;;;;;30.75;18.15;;;;;;;2.85;88.47;100236.44;5071541;28;20072;-65
2021/12/12 04:31:40;;;;;;;34.47;19.10;;;;;;;2.78;88.55;100226.31;5052552;28;20551;-65
2021/12/12 04:34:07;;;;;;;35.17;19.50;;;;;;;2.86;88.82;100239.94;5051352;28;20032;-65
2021/12/12 04:36:36;;;;;;;32.45;18.05;;;;;;;2.87;88.84;100237.19;5065900;28;20097;-66
2021/12/12 04:39:12;;;;;;;35.38;19.45;;;;;;;2.81;88.29;100229.63;5055516;28;20056;-65
2021/12/12 04:41:38;;;;;;;33.15;18.25;;;;;;;2.93;87.60;100236.84;5071495;28;20020;-65
2021/12/12 04:44:04;;;;;;;35.50;19.35;;;;;;;2.91;87.84;100233.44;5071319;28;20406;-66
2021/12/12 04:49:55;;;;;;;36.47;19.30;;;;;;;2.93;87.53;100249.25;5071058;28;20059;-65
2021/12/12 04:52:43;;;;;;;37.45;19.90;;;;;;;2.95;87.81;100250.00;5064511;28;20031;-65
2021/12/12 04:55:27;;;;;;;36.90;20.23;;;;;;;2.91;87.56;100243.19;5050526;28;20043;-65
2021/12/12 04:57:58;;;;;;;;;;;;;;;2.90;88.01;100237.03;5050436;28;20033;-66
2021/12/12 05:00:29;;;;;;;36.25;19.35;;;;;;;2.89;87.95;100235.31;5052155;28;19974;-65
2021/12/12 05:03:08;;;;;;;37.58;19.88;;;;;;;2.89;88.23;100237.09;5050337;28;20059;-65
2021/12/12 05:05:59;;;;;;;41.55;20.80;;;;;;;2.82;88.41;100236.63;5051443;28;20033;-65
2021/12/12 05:08:36;;;;;;;38.33;20.67;;;;;;;2.85;87.64;100246.19;5037881;28;20116;-65
2021/12/12 05:11:26;;;;;;;38.38;21.23;;;;;;;2.90;87.08;100262.69;5050423;28;20120;-65
2021/12/12 05:13:59;;;;;;;43.20;21.77;;;;;;;2.79;87.57;100246.53;5052336;28;20167;-65
2021/12/12 05:16:32;;;;;;;37.65;20.02;;;;;;;2.88;87.32;100261.91;5051460;28;20025;-65
2021/12/12 05:19:09;;;;;;;43.75;21.85;;;;;;;2.79;87.74;100247.41;5050373;28;20068;-66
2021/12/12 05:21:39;;;;;;;37.45;21.02;;;;;;;2.79;88.38;100259.78;5050373;28;20059;-64
2021/12/12 05:24:10;;;;;;;41.13;21.85;;;;;;;2.75;88.11;100248.50;5050483;28;20056;-64
2021/12/12 05:26:44;;;;;;;36.78;20.85;;;;;;;2.76;88.45;100247.56;5054768;28;20025;-65
2021/12/12 05:29:12;;;;;;;;;;;;;;;2.79;87.73;100246.53;5056905;28;20499;-64
2021/12/12 05:31:38;;;;;;;41.55;20.35;;;;;;;2.77;87.55;100246.63;5069594;28;19920;-65
2021/12/12 05:34:05;;;;;;;41.15;20.70;;;;;;;2.67;88.06;100234.00;5065020;28;20045;-65
2021/12/12 05:36:33;;;;;;;41.90;22.02;;;;;;;2.74;87.68;100243.31;5055688;28;20031;-65
2021/12/12 05:39:00;;;;;;;44.95;22.23;;;;;;;2.72;87.80;100250.47;5066627;28;20452;-65
2021/12/12 05:41:26;;;;;;;42.63;21.33;;;;;;;2.69;87.94;100242.69;5068326;28;20052;-66
2021/12/12 05:43:56;;;;;;;44.83;24.00;;;;;;;2.76;88.03;100254.66;5070443;28;20020;-65
2021/12/12 05:46:23;;;;;;;41.78;22.08;;;;;;;2.72;87.81;100254.00;5062107;28;20031;-66
2021/12/12 05:48:51;;;;;;;39.60;21.20;;;;;;;2.76;88.19;100259.94;5063554;28;20029;-65
2021/12/12 05:51:18;;;;;;;38.28;21.63;;;;;;;2.82;87.67;100262.25;5052225;28;20472;-66
2021/12/12 05:53:44;;;;;;;40.00;20.77;;;;;;;2.78;87.87;100272.19;5049902;28;20051;-65
2021/12/12 05:56:10;;;;;;;37.50;21.13;;;;;;;2.72;88.26;100261.94;5049599;28;20060;-65
2021/12/12 05:58:37;;;;;;;40.58;21.40;;;;;;;2.70;88.47;100255.84;5052727;28;20025;-66
2021/12/12 06:01:08;;;;;;;36.40;20.15;;;;;;;2.67;88.86;100261.31;5049863;28;20115;-67
2021/12/12 06:03:38;;;;;;;38.00;20.40;;;;;;;2.73;88.18;100270.72;5050623;28;20087;-66
2021/12/12 06:06:10;;;;;;;35.75;19.50;;;;;;;2.75;88.56;100276.78;5048911;28;20108;-65
2021/12/12 06:08:37;;;;;;;36.25;20.13;;;;;;;2.82;88.11;100275.50;5049419;28;20025;-64
2021/12/12 06:11:04;;;;;;;33.97;19.50;;;;;;;2.81;88.05;100269.34;5051948;28;20036;-65
2021/12/12 06:13:30;;;;;;;37.17;19.15;;;;;;;2.80;88.31;100277.38;5050689;28;20037;-65
2021/12/12 06:15:58;;;;;;;36.25;19.83;;;;;;;2.80;88.05;100283.50;5052057;28;20453;-65
2021/12/12 06:18:26;;;;;;;35.85;19.05;;;;;;;2.77;88.49;100277.56;5048190;28;20032;-65
2021/12/12 06:20:53;;;;;;;36.92;19.95;;;;;;;2.84;88.06;100279.75;5050789;28;20039;-66
2021/12/12 06:23:19;;;;;;;34.88;18.83;;;;;;;2.78;88.05;100272.19;5048821;28;20056;-64
2021/12/12 06:25:47;;;;;;;35.90;18.65;;;;;;;2.85;88.29;100280.59;5050161;28;20053;-65
2021/12/12 06:28:27;;;;;;;38.97;19.55;;;;;;;2.82;88.19;100286.94;5053863;28;20041;-65
2021/12/12 06:30:53;;;;;;;39.80;20.77;;;;;;;2.82;88.01;100283.44;5054602;28;20123;-64
2021/12/12 06:33:19;;;;;;;45.00;22.30;;;;;;;2.89;87.83;100287.44;5053391;28;20033;-65
2021/12/12 06:35:46;;;;;;;40.58;20.63;;;;;;;2.93;87.52;100283.69;5061686;28;20039;-66
2021/12/12 06:38:12;;;;;;;37.05;19.33;;;;;;;2.87;87.36;100278.75;5054170;28;20021;-65
2021/12/12 06:40:40;;;;;;;38.35;19.38;;;;;;;2.91;87.51;100288.22;5052481;28;20484;-66
2021/12/12 06:43:08;;;;;;;40.72;20.17;;;;;;;2.92;86.77;100282.81;5053622;28;20495;-66
2021/12/12 06:45:34;;;;;;;38.90;20.02;;;;;;;2.84;87.00;100277.09;5052921;28;20447;-66
2021/12/12 06:48:07;;;;;;;42.85;23.10;;;;;;;2.95;87.26;100297.69;5064068;28;20040;-66
2021/12/12 06:50:35;;;;;;;42.60;21.73;;;;;;;2.94;86.66;100304.78;5065025;28;20039;-65
2021/12/12 06:53:01;;;;;;;41.42;20.63;;;;;;;2.85;86.78;100291.19;5065328;28;20124;-66
2021/12/12 06:55:28;;;;;;;36.00;19.70;;;;;;;2.96;86.41;100288.81;5073481;28;20522;-65
2021/12/12 06:57:54;;;;;;;41.97;22.63;;;;;;;2.99;86.35;100304.50;5052527;28;20027;-64
2021/12/12 07:00:23;;;;;;;42.55;22.58;;;;;;;2.94;86.40;100283.59;5069349;28;20032;-64
2021/12/12 07:02:49;;;;;;;39.72;20.58;;;;;;;2.99;86.54;100302.72;5066058;28;20028;-66
2021/12/12 07:05:24;;;;;;;39.97;18.95;;;;;;;3.00;86.66;100300.94;5062558;28;20041;-65
2021/12/12 07:07:52;;;;;;;39.15;19.38;;;;;;;3.05;86.41;100317.41;5052373;28;20039;-65
2021/12/12 07:10:23;;;;;;;38.15;18.98;;;;;;;3.02;86.26;100314.94;5069673;28;20387;-66
2021/12/12 07:12:54;;;;;;;37.35;18.50;;;;;;;3.06;86.18;100303.25;5055234;28;20032;-65
2021/12/12 07:15:21;;;;;;;42.33;20.90;;;;;;;3.13;85.76;100307.22;5057108;28;20044;-66
2021/12/12 07:17:47;;;;;;;38.83;20.77;;;;;;;3.04;85.82;100303.31;5069022;28;20036;-66
2021/12/12 07:20:13;;;;;;;35.75;19.83;;;;;;;3.07;86.03;100307.59;5062801;28;20025;-65
2021/12/12 07:22:40;;;;;;;38.72;20.15;;;;;;;3.05;86.23;100293.56;5072703;28;20044;-65
2021/12/12 07:25:07;;;;;;;43.50;21.33;;;;;;;3.11;85.63;100311.75;5062404;28;20053;-65
2021/12/12 07:27:34;;;;;;;36.83;19.20;;;;;;;3.16;85.58;100321.16;5070114;28;20063;-65
2021/12/12 07:30:01;;;;;;;40.33;20.85;;;;;;;3.14;85.99;100319.53;5071383;28;20606;-65
2021/12/12 07:32:27;;;;;;;41.63;21.88;;;;;;;3.10;85.92;100312.72;5067233;28;20035;-65
2021/12/12 07:34:53;;;;;;;42.67;21.75;;;;;;;3.14;85.87;100327.47;5056039;28;20081;-64
2021/12/12 07:37:20;;;;;;;44.20;22.38;;;;;;;3.15;86.03;100327.38;5053776;28;20406;-65
2021/12/12 07:39:46;;;;;;;38.05;20.55;;;;;;;3.08;85.72;100314.56;5056639;28;20090;-65
2021/12/12 07:42:15;;;;;;;37.90;20.80;;;;;;;3.15;85.94;100330.03;5055587;28;20066;-64
2021/12/12 07:44:43;;;;;;;40.03;20.67;;;;;;;3.18;85.25;100321.91;5072349;28;20037;-65
2021/12/12 07:47:10;;;;;;;41.95;20.45;;;;;;;3.21;85.70;100331.47;5072722;28;20036;-65
2021/12/12 07:49:40;;;;;;;37.67;20.00;;;;;;;3.35;84.38;100332.38;5063733;28;20424;-65
2021/12/12 07:52:10;;;;;;;36.65;19.95;;;;;;;3.24;84.67;100321.56;5060432;28;20021;-65
2021/12/12 07:54:37;;;;;;;33.97;19.05;;;;;;;3.31;84.79;100336.16;5051220;28;20064;-65
2021/12/12 07:57:04;;;;;;;35.90;19.38;;;;;;;3.21;84.73;100320.88;5052361;28;20017;-66
2021/12/12 07:59:31;;;;;;;35.33;18.85;;;;;;;3.33;83.84;100320.19;5062929;28;20028;-66
2021/12/12 08:01:58;;;;;;;35.15;19.33;;;;;;;3.41;83.48;100333.81;5064957;28;20029;-65
2021/12/12 08:04:28;;;;;;;34.42;18.35;;;;;;;3.36;83.71;100339.41;5051917;28;20096;-66
2021/12/12 08:06:53;;;;;;;36.53;19.10;;;;;;;3.34;84.09;100343.94;5055989;28;20032;-66
2021/12/12 08:09:21;;;;;;;32.80;17.35;;;;;;;3.41;83.22;100341.78;5064020;28;20036;-66
2021/12/12 08:11:48;;;;;;;34.95;18.10;;;;;;;3.37;83.16;100333.16;5072044;28;20036;-65
2021/12/12 08:14:19;;;;;;;33.50;18.05;;;;;;;3.39;83.28;100333.91;5070671;28;20032;-65
2021/12/12 08:16:48;;;;;;;32.90;17.63;;;;;;;3.40;82.95;100332.13;5071949;28;20032;-66
2021/12/12 08:19:15;;;;;;;36.35;18.65;;;;;;;3.47;82.59;100346.72;5064806;28;20400;-66
2021/12/12 08:21:41;;;;;;;34.40;18.42;;;;;;;3.48;82.78;100345.81;5057922;28;20017;-65
2021/12/12 08:24:10;;;;;;;36.25;18.58;;;;;;;3.53;82.33;100354.31;5060704;28;20056;-65
2021/12/12 08:26:39;;;;;;;35.45;18.20;;;;;;;3.56;81.80;100355.00;5054197;28;20029;-66
2021/12/12 08:29:07;;;;;;;30.88;17.30;;;;;;;3.56;81.44;100349.72;5064721;28;20025;-65
2021/12/12 08:31:33;;;;;;;34.35;18.75;;;;;;;3.63;81.18;100350.19;5063535;28;20028;-66
2021/12/12 08:34:00;;;;;;;38.20;17.65;;;;;;;3.58;80.85;100353.09;5057214;28;20068;-66
2021/12/12 08:36:26;;;;;;;33.45;17.30;;;;;;;3.64;80.85;100355.41;5051411;28;20032;-66
2021/12/12 08:38:52;;;;;;;34.60;17.85;;;;;;;3.63;80.94;100351.03;5056369;28;20024;-65
2021/12/12 08:41:19;;;;;;;33.90;18.10;;;;;;;3.65;80.95;100359.75;5069881;28;20025;-65
2021/12/12 08:43:45;;;;;;;34.53;18.40;;;;;;;3.69;80.44;100363.09;5071261;28;20025;-64
2021/12/12 08:46:13;;;;;;;32.47;17.77;;;;;;;3.70;80.14;100352.38;5070584;28;20032;-65
2021/12/12 08:48:45;;;;;;;34.58;17.48;;;;;;;3.70;80.21;100347.09;5062539;28;20041;-66
2021/12/12 08:51:18;;;;;;;32.95;17.58;;;;;;;3.67;80.42;100347.25;5070448;28;20159;-65
2021/12/12 08:53:46;;;;;;;38.08;18.55;;;;;;;3.69;80.37;100349.81;5069414;28;20404;-66
2021/12/12 08:56:19;;;;;;;34.10;18.92;;;;;;;3.72;79.54;100344.34;5048724;28;20033;-66
2021/12/12 08:58:46;;;;;;;34.30;18.58;;;;;;;3.79;79.07;100364.25;5053723;28;20071;-65
2021/12/12 09:01:17;;;;;;;36.85;18.38;;;;;;;3.79;79.00;100357.16;5048167;28;20479;-66
2021/12/12 09:03:59;;;;;;;36.13;18.85;;;;;;;3.84;78.24;100356.88;5061122;28;20037;-67
2021/12/12 09:06:28;;;;;;;35.00;18.45;;;;;;;3.80;78.46;100352.69;5062208;28;20388;-66
2021/12/12 09:09:00;;;;;;;32.92;16.90;;;;;;;3.88;77.79;100353.09;5053088;28;20026;-66
2021/12/12 09:11:28;;;;;;;31.55;17.08;;;;;;;3.85;77.56;100345.31;5058595;28;20109;-66
2021/12/12 09:14:00;;;;;;;32.08;16.25;;;;;;;3.85;77.72;100348.84;5050214;28;20040;-66
2021/12/12 09:16:32;;;;;;;30.27;16.73;;;;;;;3.81;78.13;100344.63;5057588;28;20089;-66
2021/12/12 09:19:07;;;;;;;35.20;16.85;;;;;;;3.92;77.22;100355.47;5053676;28;20037;-66
2021/12/12 09:21:49;;;;;;;34.60;17.27;;;;;;;3.91;77.41;100356.44;5055505;28;20484;-66
2021/12/12 09:24:53;;;;;;;35.55;17.02;;;;;;;3.85;77.72;100355.94;5062604;28;20488;-66
2021/12/12 09:27:26;;;;;;;29.80;15.52;;;;;;;3.88;76.92;100353.09;5025114;28;20053;-65
2021/12/12 09:29:57;;;;;;;30.52;17.17;;;;;;;3.91;77.33;100340.50;5064683;28;20829;-65
2021/12/12 09:32:32;;;;;;;26.63;15.65;;;;;;;3.96;77.33;100340.22;5069382;28;20072;-64
2021/12/12 09:35:16;;;;;;;31.50;17.13;;;;;;;3.96;77.56;100340.22;5056986;28;20450;-65
2021/12/12 09:37:45;;;;;;;;;;;;;;;3.97;76.92;100344.59;5057911;28;20025;-65
2021/12/12 09:40:37;;;;;;;32.53;16.70;;;;;;;3.97;76.79;100348.06;5054738;28;19921;-64
2021/12/12 09:43:43;;;;;;;31.15;17.15;;;;;;;3.94;77.04;100340.28;5061287;28;20142;-66
2021/12/12 09:46:26;;;;;;;31.88;17.27;;;;;;;4.01;76.26;100335.50;5048972;28;20036;-65
2021/12/12 09:52:14;;;;;;;29.38;14.95;;;;;;;3.96;76.91;100342.84;5039453;28;20047;-65
2021/12/12 09:54:58;;;;;;;30.65;15.57;;;;;;;3.99;76.30;100337.38;5050228;28;20060;-66
2021/12/12 09:57:43;;;;;;;25.50;14.55;;;;;;;4.02;76.02;100335.41;5049663;28;20078;-66
2021/12/12 10:00:27;;;;;;;30.67;14.70;;;;;;;4.04;75.93;100335.31;5064462;28;20115;-66
2021/12/12 10:03:05;;;;;;;28.73;15.45;;;;;;;4.09;75.20;100335.88;5049710;28;20017;-65
2021/12/12 10:05:36;;;;;;;28.08;14.85;;;;;;;4.11;75.56;100345.47;5060623;28;20042;-66
2021/12/12 10:11:39;;;;;;;27.08;13.85;;;;;;;4.07;74.71;100329.81;5055369;28;20143;-70
2021/12/12 10:14:17;;;;;;;31.70;16.25;;;;;;;4.17;74.78;100330.97;5056910;28;20053;-69
2021/12/12 10:17:02;;;;;;;26.80;14.93;;;;;;;4.16;74.75;100329.25;5060149;28;20029;-70
2021/12/12 10:19:30;;;;;;;26.13;13.95;;;;;;;4.18;74.51;100330.88;5056999;28;20045;-69
2021/12/12 10:22:01;;;;;;;29.73;15.30;;;;;;;4.20;74.47;100330.78;5056942;28;20032;-69
2021/12/12 10:24:39;;;;;;;27.80;14.02;;;;;;;4.24;74.37;100334.94;5056520;28;20737;-69
2021/12/12 10:27:24;;;;;;;27.10;14.95;;;;;;;4.28;74.82;100339.09;5060757;28;20080;-69
2021/12/12 10:30:04;;;;;;;25.80;14.15;;;;;;;4.42;73.64;100331.97;5059273;28;20037;-70
2021/12/12 10:32:36;;;;;;;31.38;14.93;;;;;;;4.39;74.15;100334.81;5062890;28;20098;-70
2021/12/12 10:35:09;;;;;;;28.13;14.82;;;;;;;4.40;74.10;100330.38;5058253;28;20040;-71
2021/12/12 10:37:46;;;;;;;25.63;15.40;;;;;;;4.40;73.48;100338.34;5053793;28;20029;-70
2021/12/12 10:40:19;;;;;;;27.52;15.13;;;;;;;4.44;73.74;100334.53;5050589;28;20133;-71
2021/12/12 10:42:50;;;;;;;27.52;14.80;;;;;;;4.46;73.94;100328.19;5062458;28;20399;-68
2021/12/12 10:45:24;;;;;;;30.48;15.68;;;;;;;4.43;73.75;100339.03;5063805;28;20379;-69
2021/12/12 10:48:02;;;;;;;27.23;14.55;;;;;;;4.47;74.00;100344.97;5060637;28;20049;-69
2021/12/12 10:50:51;;;;;;;26.98;14.75;;;;;;;4.49;73.94;100345.75;5061084;28;20044;-70
2021/12/12 10:53:34;;;;;;;28.38;15.30;;;;;;;4.49;73.61;100335.13;5061450;28;20048;-70
2021/12/12 10:56:24;;;;;;;29.27;16.27;;;;;;;4.56;73.40;100344.41;5059844;28;20546;-72
2021/12/12 10:58:58;;;;;;;27.75;14.90;;;;;;;4.53;73.11;100329.53;5061569;28;20581;-71
2021/12/12 11:01:29;;;;;;;27.95;14.80;;;;;;;4.56;73.28;100333.78;5060290;28;20058;-71
2021/12/12 11:04:08;;;;;;;28.42;13.90;;;;;;;4.58;72.99;100340.69;5062895;28;20488;-71
2021/12/12 11:06:42;;;;;;;28.35;14.77;;;;;;;4.63;72.51;100337.75;5060263;28;20146;-70
2021/12/12 11:09:13;;;;;;;29.58;14.73;;;;;;;4.55;72.63;100321.47;5066984;28;20032;-72
2021/12/12 11:11:47;;;;;;;26.90;14.95;;;;;;;4.67;72.11;100341.91;5060156;28;20059;-70
2021/12/12 11:14:21;;;;;;;25.02;14.52;;;;;;;4.66;71.53;100318.97;5059669;28;20079;-70
2021/12/12 11:16:50;;;;;;;24.98;14.63;;;;;;;4.75;71.75;100342.28;5061219;28;20069;-70
2021/12/12 11:19:28;;;;;;;25.50;14.52;;;;;;;4.72;71.84;100335.38;5065432;28;20032;-70
2021/12/12 11:22:19;;;;;;;24.05;13.80;;;;;;;4.70;71.98;100339.06;5059673;28;20025;-70
2021/12/12 11:24:49;;;;;;;25.38;14.23;;;;;;;4.77;71.34;100343.03;5061011;28;20041;-70
2021/12/12 11:27:39;;;;;;;25.92;14.63;;;;;;;4.77;71.28;100343.03;5060876;28;20028;-70
2021/12/12 11:30:13;;;;;;;23.55;13.10;;;;;;;4.71;71.74;100335.47;5062928;28;20040;-70
2021/12/12 11:32:40;;;;;;;21.48;12.57;;;;;;;4.74;72.03;100344.09;5066384;28;20155;-70
2021/12/12 11:35:08;;;;;;;23.95;14.55;;;;;;;4.80;71.74;100357.94;5062259;28;20036;-70
2021/12/12 11:37:44;;;;;;;23.50;13.82;;;;;;;4.86;70.87;100353.06;5059507;28;20016;-70
2021/12/12 11:40:24;;;;;;;24.95;14.23;;;;;;;4.81;71.12;100354.31;5061725;28;20089;-70
2021/12/12 11:43:19;;;;;;;25.00;13.60;;;;;;;4.87;70.89;100353.94;5066335;28;20032;-70
2021/12/12 11:45:51;;;;;;;28.52;14.05;;;;;;;4.87;70.97;100354.78;5056744;28;20151;-70
2021/12/12 11:48:48;;;;;;;23.88;13.52;;;;;;;4.93;70.87;100362.34;5062837;28;20031;-70
2021/12/12 11:51:43;;;;;;;20.98;12.70;;;;;;;4.92;70.83;100351.81;5062036;28;20040;-71
2021/12/12 11:54:34;;;;;;;24.13;12.35;;;;;;;4.91;70.85;100361.63;5066804;28;20064;-71
2021/12/12 11:57:10;;;;;;;22.17;12.30;;;;;;;4.91;70.50;100343.03;5063771;28;20056;-70
2021/12/12 11:59:44;;;;;;;23.60;13.02;;;;;;;4.98;70.45;100351.44;5065517;28;20020;-70
2021/12/12 12:02:45;;;;;;;23.73;12.48;;;;;;;4.98;70.67;100344.31;5061155;28;20514;-71
2021/12/12 12:05:34;;;;;;;25.48;12.82;;;;;;;5.04;70.42;100359.88;5061871;28;20033;-70